Time;durP1;ratioP1;P1;durP2;ratioP2;P2;SDS_P1;SDS_P2;PMS_P1;PMS_P2;Temp;Humidity;BMP_temperature;BMP_pressure;BME280_temperature;BME280_humidity;BME280_pressure;Samples;Min_cycle;Max_cycle;Signal;HPM_P1;HPM_P2
2023/07/14 00:00:08;;;;;;;20.73;3.33;;;;;;;;;;5017485;28;20547;-66
2023/07/14 00:02:33;;;;;;;16.48;3.33;;;;;;;;;;5042680;28;20075;-67
2023/07/14 00:05:00;;;;;;;17.60;3.42;;;;;;;;;;5017015;28;20525;-66
2023/07/14 00:07:25;;;;;;;14.10;3.70;;;;;;;;;;5009131;28;20457;-67
2023/07/14 00:09:51;;;;;;;13.30;3.30;;;;;;;;;;5047788;28;20043;-67
2023/07/14 00:12:18;;;;;;;15.23;3.50;;;;;;;;;;5031039;28;20194;-66
2023/07/14 00:14:43;;;;;;;15.68;3.33;;;;;;;;;;5016013;28;20098;-67
2023/07/14 00:17:11;;;;;;;14.00;3.53;;;;;;;;;;5014978;28;20036;-66
2023/07/14 00:19:36;;;;;;;14.32;3.45;;;;;;;;;;5013004;28;20611;-66
2023/07/14 00:22:02;;;;;;;13.98;3.55;;;;;;;;;;5016444;28;20029;-65
2023/07/14 00:24:28;;;;;;;18.27;3.75;;;;;;;;;;5018540;28;20045;-66
2023/07/14 00:26:55;;;;;;;20.60;4.00;;;;;;;;;;5046537;28;20084;-67
2023/07/14 00:29:33;;;;;;;19.55;3.83;;;;;;;;;;5016389;28;20090;-67
2023/07/14 00:31:58;;;;;;;11.57;3.03;;;;;;;;;;5017691;28;20037;-65
2023/07/14 00:34:24;;;;;;;11.75;2.85;;;;;;;;;;5015147;28;20103;-66
2023/07/14 00:36:49;;;;;;;14.65;3.35;;;;;;;;;;5031202;28;20040;-66
2023/07/14 00:39:15;;;;;;;13.45;4.10;;;;;;;;;;5014381;28;20049;-67
2023/07/14 00:41:40;;;;;;;15.35;3.67;;;;;;;;;;5017978;28;20034;-66
2023/07/14 00:44:10;;;;;;;16.35;3.30;;;;;;;;;;5000094;28;20040;-66
2023/07/14 00:46:36;;;;;;;15.70;3.25;;;;;;;;;;5015085;28;20670;-66
2023/07/14 00:49:05;;;;;;;15.95;3.53;;;;;;;;;;5015641;28;20026;-67
2023/07/14 00:51:32;;;;;;;17.25;4.05;;;;;;;;;;5018059;28;20047;-66
2023/07/14 00:53:58;;;;;;;17.27;3.80;;;;;;;;;;5019490;28;20037;-67
2023/07/14 00:56:35;;;;;;;13.10;3.72;;;;;;;;;;5020616;28;20510;-66
2023/07/14 00:59:01;;;;;;;18.88;3.83;;;;;;;;;;5020338;28;20045;-68
2023/07/14 01:01:27;;;;;;;16.00;3.25;;;;;;;;;;5036428;28;20112;-68
2023/07/14 01:03:55;;;;;;;19.38;4.15;;;;;;;;;;5000177;28;20040;-69
2023/07/14 01:06:32;;;;;;;20.00;4.25;;;;;;;;;;4996590;28;20095;-69
2023/07/14 01:09:01;;;;;;;11.15;3.42;;;;;;;;;;5010457;28;21957;-67
2023/07/14 01:11:28;;;;;;;19.90;3.92;;;;;;;;;;5019575;28;20133;-69
2023/07/14 01:13:56;;;;;;;18.27;4.22;;;;;;;;;;5020352;28;20033;-68
2023/07/14 01:16:21;;;;;;;10.63;3.63;;;;;;;;;;5018408;28;20037;-68
2023/07/14 01:18:47;;;;;;;14.52;4.07;;;;;;;;;;5032624;28;20121;-68
2023/07/14 01:21:16;;;;;;;15.07;4.13;;;;;;;;;;5017130;28;20078;-69
2023/07/14 01:23:55;;;;;;;23.85;4.78;;;;;;;;;;5019667;28;20060;-68
2023/07/14 01:26:26;;;;;;;14.88;3.67;;;;;;;;;;5019213;28;20099;-68
2023/07/14 01:28:52;;;;;;;14.77;3.53;;;;;;;;;;5018161;28;20163;-67
2023/07/14 01:31:20;;;;;;;14.15;3.63;;;;;;;;;;5049546;28;20521;-67
2023/07/14 01:33:46;;;;;;;15.60;3.60;;;;;;;;;;5017554;28;20405;-68
2023/07/14 01:36:11;;;;;;;14.18;3.58;;;;;;;;;;5019329;28;20037;-68
2023/07/14 01:38:38;;;;;;;13.48;3.88;;;;;;;;;;5050126;28;20075;-67
2023/07/14 01:41:04;;;;;;;13.40;3.50;;;;;;;;;;5017677;28;20034;-68
2023/07/14 01:43:30;;;;;;;14.40;3.08;;;;;;;;;;5017933;28;20568;-67
2023/07/14 01:45:57;;;;;;;9.38;3.13;;;;;;;;;;5018272;28;20033;-68
2023/07/14 01:48:46;;;;;;;15.45;3.72;;;;;;;;;;5029586;28;20572;-68
2023/07/14 01:51:12;;;;;;;18.75;3.47;;;;;;;;;;4997796;28;20036;-69
2023/07/14 01:53:42;;;;;;;17.63;3.95;;;;;;;;;;5019727;28;20041;-69
2023/07/14 01:56:11;;;;;;;11.65;3.17;;;;;;;;;;5017687;28;20047;-69
2023/07/14 01:58:41;;;;;;;16.60;4.32;;;;;;;;;;5017581;28;20045;-68
2023/07/14 02:01:08;;;;;;;17.15;3.97;;;;;;;;;;4995975;28;20522;-69
2023/07/14 02:03:41;;;;;;;16.67;3.90;;;;;;;;;;5001590;28;20107;-67
2023/07/14 02:06:07;;;;;;;12.00;3.90;;;;;;;;;;4998871;28;20037;-68
2023/07/14 02:08:35;;;;;;;14.13;4.40;;;;;;;;;;4996282;28;20865;-66
2023/07/14 02:11:00;;;;;;;14.70;3.63;;;;;;;;;;4999667;28;20030;-69
2023/07/14 02:13:26;;;;;;;17.13;4.07;;;;;;;;;;5000857;28;20037;-68
2023/07/14 02:15:51;;;;;;;16.50;3.80;;;;;;;;;;5019806;28;20170;-68
2023/07/14 02:18:21;;;;;;;14.63;3.20;;;;;;;;;;5013916;28;20056;-68
2023/07/14 02:20:47;;;;;;;9.98;2.95;;;;;;;;;;5009966;28;20038;-68
2023/07/14 02:23:14;;;;;;;10.30;3.08;;;;;;;;;;5013948;28;20045;-68
2023/07/14 02:25:44;;;;;;;13.95;3.55;;;;;;;;;;5015540;28;20046;-68
2023/07/14 02:28:10;;;;;;;12.32;3.28;;;;;;;;;;4995924;28;20041;-68
2023/07/14 02:30:35;;;;;;;16.27;3.90;;;;;;;;;;5012792;28;20568;-69
2023/07/14 02:33:07;;;;;;;16.70;3.55;;;;;;;;;;5018543;28;20072;-69
2023/07/14 02:35:40;;;;;;;10.63;3.63;;;;;;;;;;5018922;28;20029;-69
2023/07/14 02:38:15;;;;;;;18.52;3.70;;;;;;;;;;4993164;28;20037;-69
2023/07/14 02:41:00;;;;;;;16.98;4.43;;;;;;;;;;4997092;28;21323;-69
2023/07/14 02:43:26;;;;;;;14.52;3.40;;;;;;;;;;4997241;28;20037;-68
2023/07/14 02:46:01;;;;;;;14.90;3.97;;;;;;;;;;4994211;28;20041;-68
2023/07/14 02:48:47;;;;;;;14.18;3.90;;;;;;;;;;4997087;28;20149;-66
2023/07/14 02:51:12;;;;;;;17.35;4.15;;;;;;;;;;5014520;28;20083;-68
2023/07/14 02:53:37;;;;;;;16.67;4.35;;;;;;;;;;5015888;28;20033;-68
2023/07/14 02:56:03;;;;;;;19.55;4.32;;;;;;;;;;5033070;28;20039;-67
2023/07/14 02:58:29;;;;;;;16.48;3.85;;;;;;;;;;5047131;28;20556;-68
2023/07/14 03:00:56;;;;;;;12.77;4.22;;;;;;;;;;5049366;28;20044;-68
2023/07/14 03:03:22;;;;;;;16.90;4.75;;;;;;;;;;5017243;28;20201;-70
2023/07/14 03:05:47;;;;;;;18.35;4.38;;;;;;;;;;5019862;28;20040;-68
2023/07/14 03:08:18;;;;;;;15.20;3.58;;;;;;;;;;5049217;28;20044;-68
2023/07/14 03:10:48;;;;;;;12.70;3.65;;;;;;;;;;5016991;28;20044;-68
2023/07/14 03:13:15;;;;;;;17.38;3.70;;;;;;;;;;5014525;28;20037;-68
2023/07/14 03:15:44;;;;;;;14.63;3.63;;;;;;;;;;5016529;28;20037;-66
2023/07/14 03:18:11;;;;;;;13.02;4.00;;;;;;;;;;5014512;28;20029;-68
2023/07/14 03:20:39;;;;;;;14.38;3.75;;;;;;;;;;5012738;28;20728;-68
2023/07/14 03:23:05;;;;;;;12.73;4.32;;;;;;;;;;5017309;28;22331;-69
2023/07/14 03:25:30;;;;;;;16.15;4.32;;;;;;;;;;5032172;28;20117;-68
2023/07/14 03:27:55;;;;;;;14.48;4.25;;;;;;;;;;5016744;28;20029;-68
2023/07/14 03:30:21;;;;;;;12.43;4.22;;;;;;;;;;5013583;28;20167;-69
2023/07/14 03:32:46;;;;;;;16.02;5.57;;;;;;;;;;5017464;28;21530;-68
2023/07/14 03:35:11;;;;;;;15.90;5.13;;;;;;;;;;5016556;28;20036;-67
2023/07/14 03:37:37;;;;;;;17.42;6.45;;;;;;;;;;5014719;28;20103;-67
2023/07/14 03:40:04;;;;;;;21.60;7.18;;;;;;;;;;5014636;28;20049;-67
2023/07/14 03:42:30;;;;;;;24.33;9.30;;;;;;;;;;5000242;28;20049;-67
2023/07/14 03:44:55;;;;;;;16.05;7.68;;;;;;;;;;4997466;28;20033;-68
2023/07/14 03:47:20;;;;;;;14.45;7.35;;;;;;;;;;4998195;28;22433;-67
2023/07/14 03:49:46;;;;;;;16.50;7.00;;;;;;;;;;4998709;28;20160;-67
2023/07/14 03:52:13;;;;;;;16.80;6.57;;;;;;;;;;4995398;28;20045;-67
2023/07/14 03:54:38;;;;;;;15.02;6.68;;;;;;;;;;4994759;28;20083;-67
2023/07/14 03:57:05;;;;;;;19.20;6.90;;;;;;;;;;5002432;28;20046;-69
2023/07/14 03:59:30;;;;;;;16.48;6.78;;;;;;;;;;4999118;28;20052;-69
2023/07/14 04:01:58;;;;;;;14.30;6.45;;;;;;;;;;5011099;28;20913;-68
2023/07/14 04:04:26;;;;;;;13.90;6.60;;;;;;;;;;4991655;28;20029;-68
2023/07/14 04:06:51;;;;;;;18.58;8.27;;;;;;;;;;5016504;28;20037;-68
2023/07/14 04:09:19;;;;;;;15.50;7.60;;;;;;;;;;5030289;28;20045;-69
2023/07/14 04:11:44;;;;;;;16.15;7.40;;;;;;;;;;5015432;28;20144;-68
2023/07/14 04:14:10;;;;;;;21.63;9.60;;;;;;;;;;5014552;28;20039;-68
2023/07/14 04:16:35;;;;;;;23.30;10.05;;;;;;;;;;5017141;28;22390;-67
2023/07/14 04:19:01;;;;;;;14.20;7.45;;;;;;;;;;5017033;28;20041;-68
2023/07/14 04:21:27;;;;;;;13.15;7.32;;;;;;;;;;5019317;28;20144;-68
2023/07/14 04:23:53;;;;;;;15.43;7.53;;;;;;;;;;5015926;28;20048;-68
2023/07/14 04:26:19;;;;;;;16.83;7.53;;;;;;;;;;5051299;28;20099;-68
2023/07/14 04:28:44;;;;;;;14.75;6.82;;;;;;;;;;5015526;28;20342;-66
2023/07/14 04:31:09;;;;;;;25.25;9.18;;;;;;;;;;5019926;28;20037;-66
2023/07/14 04:33:35;;;;;;;21.02;8.38;;;;;;;;;;4999949;28;20047;-65
2023/07/14 04:36:00;;;;;;;21.23;9.07;;;;;;;;;;5050148;28;20045;-66
2023/07/14 04:38:26;;;;;;;22.50;10.82;;;;;;;;;;5019526;28;20065;-67
2023/07/14 04:40:51;;;;;;;22.20;11.55;;;;;;;;;;5018683;28;20040;-65
2023/07/14 04:43:18;;;;;;;23.30;10.90;;;;;;;;;;5020491;28;20040;-66
2023/07/14 04:45:44;;;;;;;19.77;9.98;;;;;;;;;;5015711;28;20033;-66
2023/07/14 04:48:11;;;;;;;17.17;9.02;;;;;;;;;;5020254;28;20036;-66
2023/07/14 04:50:36;;;;;;;17.65;9.18;;;;;;;;;;5020453;28;20044;-67
2023/07/14 04:53:05;;;;;;;17.42;9.75;;;;;;;;;;5021584;28;20038;-66
2023/07/14 04:55:37;;;;;;;16.77;9.00;;;;;;;;;;5018424;28;20033;-64
2023/07/14 04:58:05;;;;;;;27.27;11.65;;;;;;;;;;5018408;28;20137;-65
2023/07/14 05:00:31;;;;;;;21.85;9.20;;;;;;;;;;5017082;28;20037;-65
2023/07/14 05:02:56;;;;;;;17.15;8.48;;;;;;;;;;5016443;28;20072;-66
2023/07/14 05:05:23;;;;;;;19.95;9.90;;;;;;;;;;5018387;28;20067;-66
2023/07/14 05:07:48;;;;;;;15.55;7.65;;;;;;;;;;5047132;28;20060;-66
2023/07/14 05:10:14;;;;;;;13.25;6.82;;;;;;;;;;5019442;28;20084;-65
2023/07/14 05:12:40;;;;;;;13.40;7.18;;;;;;;;;;5018728;28;20075;-67
2023/07/14 05:15:06;;;;;;;15.05;6.65;;;;;;;;;;5019189;28;20477;-66
2023/07/14 05:17:34;;;;;;;19.33;7.45;;;;;;;;;;5019803;28;20025;-66
2023/07/14 05:20:00;;;;;;;18.63;8.15;;;;;;;;;;5011910;28;20535;-67
2023/07/14 05:22:25;;;;;;;16.25;6.85;;;;;;;;;;5020147;28;20034;-65
2023/07/14 05:24:51;;;;;;;15.48;6.40;;;;;;;;;;5010593;28;20490;-65
2023/07/14 05:27:16;;;;;;;18.67;6.85;;;;;;;;;;5030152;28;20688;-65
2023/07/14 05:29:44;;;;;;;16.33;6.57;;;;;;;;;;5021759;28;20039;-65
2023/07/14 05:32:09;;;;;;;15.65;7.00;;;;;;;;;;5016666;28;20134;-65
2023/07/14 05:34:34;;;;;;;21.73;7.85;;;;;;;;;;5016660;28;20043;-65
2023/07/14 05:36:59;;;;;;;16.25;7.00;;;;;;;;;;5018876;28;20048;-65
2023/07/14 05:39:25;;;;;;;28.05;7.78;;;;;;;;;;5016295;28;20090;-65
2023/07/14 05:41:50;;;;;;;18.65;8.10;;;;;;;;;;5016316;28;20071;-65
2023/07/14 05:44:15;;;;;;;16.20;7.70;;;;;;;;;;5014305;28;20684;-66
2023/07/14 05:46:41;;;;;;;16.05;7.47;;;;;;;;;;5016592;28;20033;-65
2023/07/14 05:49:06;;;;;;;17.75;8.00;;;;;;;;;;5016974;28;20124;-65
2023/07/14 05:51:31;;;;;;;16.63;8.30;;;;;;;;;;5017155;28;20033;-65
2023/07/14 05:53:56;;;;;;;16.08;7.25;;;;;;;;;;5026095;28;20044;-65
2023/07/14 05:56:22;;;;;;;14.55;6.15;;;;;;;;;;5014696;28;20072;-64
2023/07/14 05:58:47;;;;;;;14.70;6.40;;;;;;;;;;5041827;28;20136;-64
2023/07/14 06:01:13;;;;;;;15.02;7.18;;;;;;;;;;5016578;28;20088;-64
2023/07/14 06:03:41;;;;;;;16.65;7.40;;;;;;;;;;5013438;28;20067;-65
2023/07/14 06:06:07;;;;;;;16.75;6.22;;;;;;;;;;5017556;28;20033;-65
2023/07/14 06:08:32;;;;;;;12.25;6.22;;;;;;;;;;5017506;28;20088;-67
2023/07/14 06:10:57;;;;;;;13.93;6.20;;;;;;;;;;4999877;28;20123;-65
2023/07/14 06:13:25;;;;;;;14.13;6.28;;;;;;;;;;4997653;28;20053;-65
2023/07/14 06:15:51;;;;;;;13.32;6.00;;;;;;;;;;4998958;28;20033;-66
2023/07/14 06:18:17;;;;;;;14.40;5.57;;;;;;;;;;5017113;28;20425;-67
2023/07/14 06:20:42;;;;;;;12.32;5.90;;;;;;;;;;5010262;28;20042;-66
2023/07/14 06:23:07;;;;;;;12.93;6.55;;;;;;;;;;5016514;28;20030;-66
2023/07/14 06:25:33;;;;;;;14.40;5.72;;;;;;;;;;5008102;28;20034;-66
2023/07/14 06:27:59;;;;;;;18.75;7.45;;;;;;;;;;5014586;28;20135;-66
2023/07/14 06:30:25;;;;;;;14.15;5.72;;;;;;;;;;5018527;28;20037;-66
2023/07/14 06:32:51;;;;;;;12.95;5.63;;;;;;;;;;5017762;28;20153;-65
2023/07/14 06:35:17;;;;;;;12.15;6.03;;;;;;;;;;5013951;28;20037;-65
2023/07/14 06:37:42;;;;;;;16.17;5.78;;;;;;;;;;5017500;28;20079;-65
2023/07/14 06:40:11;;;;;;;16.35;5.25;;;;;;;;;;5021122;28;20133;-67
2023/07/14 06:42:37;;;;;;;13.32;5.30;;;;;;;;;;5010259;28;20465;-65
2023/07/14 06:45:03;;;;;;;14.98;6.63;;;;;;;;;;5011660;28;20029;-65
2023/07/14 06:47:32;;;;;;;16.95;6.57;;;;;;;;;;5015399;28;20037;-65
2023/07/14 06:49:58;;;;;;;12.32;5.30;;;;;;;;;;5018192;28;20043;-66
2023/07/14 06:52:23;;;;;;;16.63;5.47;;;;;;;;;;5046539;28;20644;-64
2023/07/14 06:54:48;;;;;;;13.25;6.25;;;;;;;;;;5014547;28;20071;-64
2023/07/14 06:57:14;;;;;;;20.58;6.60;;;;;;;;;;5015757;28;20033;-63
2023/07/14 06:59:39;;;;;;;21.38;7.40;;;;;;;;;;5016782;28;20076;-63
2023/07/14 07:02:05;;;;;;;15.63;6.80;;;;;;;;;;5019350;28;20033;-64
2023/07/14 07:04:33;;;;;;;22.88;9.02;;;;;;;;;;5017108;28;20037;-64
2023/07/14 07:06:58;;;;;;;19.67;8.00;;;;;;;;;;5017179;28;20044;-64
2023/07/14 07:09:24;;;;;;;18.95;7.95;;;;;;;;;;5018237;28;20041;-65
2023/07/14 07:11:49;;;;;;;16.38;7.40;;;;;;;;;;5018012;28;20041;-64
2023/07/14 07:14:15;;;;;;;20.27;7.78;;;;;;;;;;5014615;28;20785;-64
2023/07/14 07:16:40;;;;;;;19.65;7.40;;;;;;;;;;5014892;28;20056;-63
2023/07/14 07:19:05;;;;;;;13.90;7.75;;;;;;;;;;5045533;28;20038;-64
2023/07/14 07:21:31;;;;;;;17.20;7.97;;;;;;;;;;5008148;28;20893;-65
2023/07/14 07:23:56;;;;;;;18.55;7.30;;;;;;;;;;4997064;28;20047;-64
2023/07/14 07:26:24;;;;;;;19.52;7.60;;;;;;;;;;5040720;28;20036;-66
2023/07/14 07:28:49;;;;;;;18.88;8.32;;;;;;;;;;5016656;28;20095;-63
2023/07/14 07:31:14;;;;;;;15.40;7.07;;;;;;;;;;5012719;28;20079;-65
2023/07/14 07:33:40;;;;;;;15.73;5.93;;;;;;;;;;5048770;28;20040;-65
2023/07/14 07:36:15;;;;;;;16.55;7.18;;;;;;;;;;5048184;28;20045;-66
2023/07/14 07:38:45;;;;;;;15.88;8.50;;;;;;;;;;5015370;28;20055;-66
2023/07/14 07:41:13;;;;;;;16.85;8.13;;;;;;;;;;5030289;28;20037;-66
2023/07/14 07:43:38;;;;;;;16.77;8.23;;;;;;;;;;5016358;28;20036;-64
2023/07/14 07:46:06;;;;;;;19.40;7.32;;;;;;;;;;4996970;28;20401;-66
2023/07/14 07:48:31;;;;;;;14.38;7.20;;;;;;;;;;5046642;28;20033;-65
2023/07/14 07:50:57;;;;;;;18.13;8.85;;;;;;;;;;5016452;28;20033;-66
2023/07/14 07:53:22;;;;;;;20.83;9.00;;;;;;;;;;5012797;28;20157;-64
2023/07/14 07:55:54;;;;;;;17.40;7.18;;;;;;;;;;5014711;28;20040;-66
2023/07/14 07:58:24;;;;;;;15.75;6.75;;;;;;;;;;5016043;28;20041;-66
2023/07/14 08:00:49;;;;;;;17.02;6.38;;;;;;;;;;5018174;28;20040;-64
2023/07/14 08:03:15;;;;;;;14.40;5.68;;;;;;;;;;5019968;28;20033;-66
2023/07/14 08:05:40;;;;;;;14.43;6.05;;;;;;;;;;5033079;28;21695;-66
2023/07/14 08:08:06;;;;;;;18.50;5.40;;;;;;;;;;5010015;28;20137;-67
2023/07/14 08:10:31;;;;;;;17.08;5.30;;;;;;;;;;5000045;28;20042;-66
2023/07/14 08:12:56;;;;;;;15.18;5.40;;;;;;;;;;4995036;28;20037;-63
2023/07/14 08:15:22;;;;;;;23.25;5.78;;;;;;;;;;4997451;28;20026;-69
2023/07/14 08:17:54;;;;;;;23.90;7.22;;;;;;;;;;4999713;28;20034;-64
2023/07/14 08:20:19;;;;;;;15.50;6.65;;;;;;;;;;4998569;28;20049;-64
2023/07/14 08:22:44;;;;;;;20.10;6.65;;;;;;;;;;4999718;28;20099;-64
2023/07/14 08:25:10;;;;;;;21.58;6.72;;;;;;;;;;5016262;28;20040;-65
2023/07/14 08:27:35;;;;;;;17.15;6.57;;;;;;;;;;5022205;28;20680;-64
2023/07/14 08:30:01;;;;;;;17.42;5.13;;;;;;;;;;5020239;28;20505;-64
2023/07/14 08:32:26;;;;;;;11.60;5.10;;;;;;;;;;5017703;28;20390;-65
2023/07/14 08:34:52;;;;;;;18.40;6.35;;;;;;;;;;5013550;28;20065;-64
2023/07/14 08:37:17;;;;;;;19.23;5.47;;;;;;;;;;5019102;28;20037;-64
2023/07/14 08:39:43;;;;;;;12.73;4.80;;;;;;;;;;5015406;28;20045;-64
2023/07/14 08:42:18;;;;;;;12.18;4.82;;;;;;;;;;5018295;28;20035;-65
2023/07/14 08:44:58;;;;;;;20.25;4.78;;;;;;;;;;5049565;28;20036;-65
2023/07/14 08:47:28;;;;;;;12.17;4.10;;;;;;;;;;5017978;28;20042;-62
2023/07/14 08:50:11;;;;;;;11.00;4.40;;;;;;;;;;5022431;28;20064;-64
2023/07/14 08:52:38;;;;;;;16.25;4.68;;;;;;;;;;4998674;28;20037;-66
2023/07/14 08:55:10;;;;;;;9.60;4.22;;;;;;;;;;5009993;28;20496;-62
2023/07/14 08:57:41;;;;;;;12.40;4.63;;;;;;;;;;5032565;28;20501;-62
2023/07/14 09:00:09;;;;;;;15.65;4.82;;;;;;;;;;5031711;28;20041;-63
2023/07/14 09:02:37;;;;;;;17.77;4.97;;;;;;;;;;5016241;28;20118;-63
2023/07/14 09:05:05;;;;;;;14.88;5.03;;;;;;;;;;5018735;28;20033;-63
2023/07/14 09:07:30;;;;;;;15.07;5.00;;;;;;;;;;5015932;28;20452;-63
2023/07/14 09:09:55;;;;;;;17.77;4.93;;;;;;;;;;5016614;28;20048;-65
2023/07/14 09:12:28;;;;;;;13.05;4.13;;;;;;;;;;5012226;28;20033;-64
2023/07/14 09:15:02;;;;;;;13.15;4.40;;;;;;;;;;4998918;28;20041;-63
2023/07/14 09:17:27;;;;;;;10.00;4.22;;;;;;;;;;5012725;28;20036;-64
2023/07/14 09:19:56;;;;;;;14.73;4.93;;;;;;;;;;5017247;28;20052;-66
2023/07/14 09:22:30;;;;;;;15.70;4.93;;;;;;;;;;5016385;28;20091;-64
2023/07/14 09:24:56;;;;;;;15.95;5.03;;;;;;;;;;5017637;28;20163;-63
2023/07/14 09:27:25;;;;;;;14.73;4.90;;;;;;;;;;5015676;28;20995;-64
2023/07/14 09:29:51;;;;;;;14.77;5.15;;;;;;;;;;5016574;28;20056;-64
2023/07/14 09:32:32;;;;;;;14.23;4.65;;;;;;;;;;5019317;28;20040;-63
2023/07/14 09:35:09;;;;;;;14.13;5.13;;;;;;;;;;5018265;28;20037;-62
2023/07/14 09:37:42;;;;;;;15.90;5.03;;;;;;;;;;5016482;28;20037;-63
2023/07/14 09:40:16;;;;;;;20.13;5.65;;;;;;;;;;5013286;28;20083;-62
2023/07/14 09:42:42;;;;;;;17.58;4.97;;;;;;;;;;4995063;28;20129;-63
2023/07/14 09:45:14;;;;;;;13.00;4.40;;;;;;;;;;4998298;28;20083;-62
2023/07/14 09:47:43;;;;;;;12.55;4.05;;;;;;;;;;4994503;28;20091;-63
2023/07/14 09:50:14;;;;;;;11.27;4.40;;;;;;;;;;4994371;28;20030;-63
2023/07/14 09:52:50;;;;;;;12.57;4.82;;;;;;;;;;4995075;28;20108;-63
2023/07/14 09:55:15;;;;;;;14.32;4.00;;;;;;;;;;5028197;28;20048;-62
2023/07/14 09:57:42;;;;;;;14.75;4.47;;;;;;;;;;4996228;28;20410;-62
2023/07/14 10:00:40;;;;;;;18.77;4.78;;;;;;;;;;4995421;28;20049;-65
2023/07/14 10:03:09;;;;;;;11.68;4.50;;;;;;;;;;5000184;28;20064;-65
2023/07/14 10:05:36;;;;;;;11.57;4.50;;;;;;;;;;5020004;28;20037;-65
2023/07/14 10:08:03;;;;;;;12.82;4.28;;;;;;;;;;5017871;28;20045;-65
2023/07/14 10:10:30;;;;;;;17.25;4.40;;;;;;;;;;5016547;28;20060;-64
2023/07/14 10:12:56;;;;;;;12.40;4.45;;;;;;;;;;5012100;28;20490;-65
2023/07/14 10:15:22;;;;;;;12.95;4.63;;;;;;;;;;5016993;28;22317;-64
2023/07/14 10:17:51;;;;;;;12.85;4.40;;;;;;;;;;5014510;28;20527;-63
2023/07/14 10:20:18;;;;;;;15.02;4.28;;;;;;;;;;5046416;28;20045;-65
2023/07/14 10:22:46;;;;;;;10.85;4.13;;;;;;;;;;5009955;28;20056;-64
2023/07/14 10:25:16;;;;;;;12.45;3.92;;;;;;;;;;5017646;28;20234;-64
2023/07/14 10:27:55;;;;;;;15.98;4.68;;;;;;;;;;5016652;28;20146;-65
2023/07/14 10:30:41;;;;;;;13.95;4.05;;;;;;;;;;5017191;28;20037;-64
2023/07/14 10:33:16;;;;;;;8.23;3.40;;;;;;;;;;4996514;28;20082;-65
2023/07/14 10:35:42;;;;;;;11.15;4.10;;;;;;;;;;5018537;28;20033;-64
2023/07/14 10:38:07;;;;;;;9.32;3.80;;;;;;;;;;5017205;28;20628;-64
2023/07/14 10:40:36;;;;;;;14.15;4.78;;;;;;;;;;5016290;28;20045;-63
2023/07/14 10:43:38;;;;;;;15.15;4.57;;;;;;;;;;5013976;28;21055;-64
2023/07/14 10:46:10;;;;;;;14.30;3.85;;;;;;;;;;4937297;28;21826;-66
2023/07/14 10:48:42;;;;;;;11.60;3.83;;;;;;;;;;4996324;28;20080;-65
2023/07/14 10:51:10;;;;;;;9.77;3.50;;;;;;;;;;5014998;28;20417;-65
2023/07/14 10:53:42;;;;;;;11.80;4.20;;;;;;;;;;5016451;28;20042;-65
2023/07/14 10:56:24;;;;;;;9.07;3.65;;;;;;;;;;5010910;28;20083;-66
2023/07/14 10:58:55;;;;;;;8.50;3.50;;;;;;;;;;5015681;28;20051;-65
2023/07/14 11:01:29;;;;;;;9.38;3.40;;;;;;;;;;5013585;28;20813;-64
2023/07/14 11:04:03;;;;;;;9.35;3.35;;;;;;;;;;4992735;28;20041;-65
2023/07/14 11:06:31;;;;;;;8.93;3.40;;;;;;;;;;5026385;28;20142;-65
2023/07/14 11:08:57;;;;;;;9.07;3.20;;;;;;;;;;5010268;28;20128;-67
2023/07/14 11:11:43;;;;;;;9.63;3.60;;;;;;;;;;4994126;28;20034;-65
2023/07/14 11:14:28;;;;;;;9.27;3.65;;;;;;;;;;5002504;28;20049;-68
2023/07/14 11:16:53;;;;;;;11.52;3.33;;;;;;;;;;5012557;28;20798;-67
2023/07/14 11:19:40;;;;;;;7.60;2.88;;;;;;;;;;5011400;28;20800;-67
2023/07/14 11:22:22;;;;;;;8.25;2.63;;;;;;;;;;5047005;28;20048;-67
2023/07/14 11:25:05;;;;;;;8.98;3.30;;;;;;;;;;5002100;28;20102;-69
2023/07/14 11:27:30;;;;;;;6.82;2.60;;;;;;;;;;5017971;28;20037;-67
2023/07/14 11:30:00;;;;;;;10.60;3.13;;;;;;;;;;5038792;28;20041;-67
2023/07/14 11:32:49;;;;;;;8.75;3.22;;;;;;;;;;5012927;28;20043;-66
2023/07/14 11:35:27;;;;;;;8.80;3.13;;;;;;;;;;4992952;28;20037;-66
2023/07/14 11:38:12;;;;;;;10.65;3.05;;;;;;;;;;4989949;28;20108;-68
2023/07/14 11:40:40;;;;;;;8.57;2.70;;;;;;;;;;4997325;28;20041;-68
2023/07/14 11:43:10;;;;;;;8.25;3.00;;;;;;;;;;5006529;28;20784;-68
2023/07/14 11:45:35;;;;;;;7.50;2.90;;;;;;;;;;5013256;28;20037;-67
2023/07/14 11:48:01;;;;;;;9.40;3.40;;;;;;;;;;5009141;28;20453;-67
2023/07/14 11:50:27;;;;;;;11.88;3.85;;;;;;;;;;5041079;28;20068;-66
2023/07/14 11:52:59;;;;;;;7.47;3.00;;;;;;;;;;5010867;28;20060;-67
2023/07/14 11:55:29;;;;;;;7.78;3.30;;;;;;;;;;5009577;28;20038;-66
2023/07/14 11:58:16;;;;;;;10.95;4.43;;;;;;;;;;5015368;28;20044;-68
2023/07/14 12:00:45;;;;;;;12.50;4.28;;;;;;;;;;5012147;28;20049;-67
2023/07/14 12:03:24;;;;;;;13.25;3.17;;;;;;;;;;5011265;28;20040;-68
2023/07/14 12:06:09;;;;;;;8.85;3.00;;;;;;;;;;5013786;28;20520;-68
2023/07/14 12:08:38;;;;;;;10.98;3.58;;;;;;;;;;5014313;28;20060;-65
2023/07/14 12:11:04;;;;;;;11.07;3.95;;;;;;;;;;5012429;28;20523;-66
2023/07/14 12:13:34;;;;;;;20.75;7.18;;;;;;;;;;5014320;28;20033;-67
2023/07/14 12:16:02;;;;;;;14.00;4.80;;;;;;;;;;5045179;28;20067;-67
2023/07/14 12:18:34;;;;;;;14.88;4.72;;;;;;;;;;5011661;28;20130;-67
2023/07/14 12:21:15;;;;;;;11.35;3.70;;;;;;;;;;5017800;28;20037;-67
2023/07/14 12:23:47;;;;;;;9.65;3.20;;;;;;;;;;4991897;28;20101;-67
2023/07/14 12:26:12;;;;;;;;;;;;;;;;;;4995661;28;20060;-70
2023/07/14 12:28:38;;;;;;;10.85;5.10;;;;;;;;;;5010812;28;19916;-67
2023/07/14 12:31:06;;;;;;;12.85;3.80;;;;;;;;;;4992088;28;20029;-67
2023/07/14 12:33:31;;;;;;;10.00;3.65;;;;;;;;;;5000916;28;20037;-67
2023/07/14 12:36:00;;;;;;;10.43;3.45;;;;;;;;;;4994951;28;20029;-66
2023/07/14 12:38:27;;;;;;;9.02;2.97;;;;;;;;;;5011132;28;20094;-65
2023/07/14 12:40:54;;;;;;;8.27;3.38;;;;;;;;;;4992509;28;20426;-67
2023/07/14 12:43:43;;;;;;;8.68;4.00;;;;;;;;;;5003776;28;20105;-65
2023/07/14 12:46:11;;;;;;;14.80;5.60;;;;;;;;;;5015566;28;20532;-66
2023/07/14 12:48:37;;;;;;;6.60;3.28;;;;;;;;;;5011460;28;20040;-66
2023/07/14 12:51:16;;;;;;;11.43;3.47;;;;;;;;;;5012004;28;20038;-68
2023/07/14 12:53:41;;;;;;;7.55;3.35;;;;;;;;;;5001818;28;20194;-67
2023/07/14 12:56:11;;;;;;;8.60;3.33;;;;;;;;;;5028089;28;20107;-67
2023/07/14 12:58:39;;;;;;;9.35;4.00;;;;;;;;;;4998646;28;20098;-69
2023/07/14 13:01:07;;;;;;;7.25;3.03;;;;;;;;;;5002069;28;20030;-68
2023/07/14 13:03:36;;;;;;;7.20;3.53;;;;;;;;;;4999144;28;20848;-68
2023/07/14 13:06:01;;;;;;;8.73;3.60;;;;;;;;;;5016227;28;20865;-65
2023/07/14 13:08:27;;;;;;;6.85;2.97;;;;;;;;;;5048854;28;20036;-69
2023/07/14 13:10:55;;;;;;;8.38;3.25;;;;;;;;;;5018688;28;20563;-69
2023/07/14 13:13:28;;;;;;;9.05;3.80;;;;;;;;;;5015772;28;20033;-66
2023/07/14 13:15:58;;;;;;;8.75;3.72;;;;;;;;;;5012712;28;20108;-65
2023/07/14 13:18:30;;;;;;;10.93;3.50;;;;;;;;;;5012661;28;20036;-66
2023/07/14 13:20:56;;;;;;;7.07;2.97;;;;;;;;;;5017291;28;20429;-67
2023/07/14 13:23:24;;;;;;;7.45;3.20;;;;;;;;;;5019674;28;20021;-67
2023/07/14 13:25:59;;;;;;;7.55;3.00;;;;;;;;;;5006662;28;20092;-67
2023/07/14 13:28:33;;;;;;;7.20;3.30;;;;;;;;;;5027900;28;20037;-67
2023/07/14 13:31:03;;;;;;;4.70;2.85;;;;;;;;;;5001333;28;20177;-67
2023/07/14 13:33:28;;;;;;;6.72;2.95;;;;;;;;;;5018178;28;20037;-68
2023/07/14 13:35:55;;;;;;;7.72;3.28;;;;;;;;;;5003103;28;20731;-69
2023/07/14 13:38:20;;;;;;;7.82;3.05;;;;;;;;;;5046225;28;20102;-67
2023/07/14 13:40:49;;;;;;;7.15;2.80;;;;;;;;;;5014825;28;20045;-67
2023/07/14 13:43:20;;;;;;;6.13;3.20;;;;;;;;;;5015999;28;20109;-67
2023/07/14 13:45:55;;;;;;;10.00;3.45;;;;;;;;;;5006847;28;20567;-68
2023/07/14 13:48:30;;;;;;;6.85;3.53;;;;;;;;;;4992909;28;20041;-67
2023/07/14 13:50:56;;;;;;;5.88;3.15;;;;;;;;;;4992031;28;20041;-67
2023/07/14 13:53:21;;;;;;;7.03;3.08;;;;;;;;;;5031562;28;20052;-67
2023/07/14 13:55:47;;;;;;;6.07;3.13;;;;;;;;;;5013360;28;20043;-69
2023/07/14 13:58:13;;;;;;;7.20;3.90;;;;;;;;;;5011227;28;20698;-69
2023/07/14 14:00:38;;;;;;;8.75;3.60;;;;;;;;;;5007888;28;20053;-68
2023/07/14 14:03:08;;;;;;;5.78;2.95;;;;;;;;;;5011815;28;20033;-67
2023/07/14 14:05:36;;;;;;;8.20;3.72;;;;;;;;;;5011447;28;20032;-68
2023/07/14 14:08:05;;;;;;;6.80;3.25;;;;;;;;;;5006542;28;20056;-69
2023/07/14 14:10:31;;;;;;;7.22;3.83;;;;;;;;;;5023578;28;20417;-66
2023/07/14 14:13:00;;;;;;;7.18;3.22;;;;;;;;;;5013081;28;20055;-69
2023/07/14 14:15:27;;;;;;;14.77;3.83;;;;;;;;;;5042876;28;20740;-69
2023/07/14 14:17:56;;;;;;;7.68;3.88;;;;;;;;;;5001932;28;20581;-68
2023/07/14 14:20:24;;;;;;;8.50;3.55;;;;;;;;;;5024314;28;20041;-66
2023/07/14 14:22:52;;;;;;;10.55;4.53;;;;;;;;;;4991857;28;20213;-69
2023/07/14 14:25:21;;;;;;;11.50;4.60;;;;;;;;;;4990647;28;20241;-69
2023/07/14 14:27:52;;;;;;;9.27;4.50;;;;;;;;;;4991872;28;20033;-70
2023/07/14 14:30:19;;;;;;;8.13;4.50;;;;;;;;;;4993478;28;20040;-67
2023/07/14 14:32:46;;;;;;;9.23;4.43;;;;;;;;;;4992229;28;20055;-68
2023/07/14 14:35:22;;;;;;;9.77;4.18;;;;;;;;;;4989223;28;20040;-67
2023/07/14 14:37:48;;;;;;;8.23;4.30;;;;;;;;;;4990778;28;20053;-67
2023/07/14 14:40:17;;;;;;;6.20;3.97;;;;;;;;;;4992314;28;20124;-67